sensor_id;sensor_type;location;lat;lon;timestamp;temperature;humidity
20858;DHT22;10589;53.636;10.012;2022-12-18T04:47:08;-6.00;99.90
20858;DHT22;10589;53.636;10.012;2022-12-18T04:49:34;-6.00;99.90
20858;DHT22;10589;53.636;10.012;2022-12-18T04:51:59;-6.10;99.90
20858;DHT22;10589;53.636;10.012;2022-12-18T04:54:25;-6.10;99.90
20858;DHT22;10589;53.636;10.012;2022-12-18T04:56:50;-6.00;99.90
20858;DHT22;10589;53.636;10.012;2022-12-18T04:59:16;-6.10;99.90
20858;DHT22;10589;53.636;10.012;2022-12-18T05:01:42;-6.10;99.90
20858;DHT22;10589;53.636;10.012;2022-12-18T05:04:07;-6.10;99.90
20858;DHT22;10589;53.636;10.012;2022-12-18T05:06:33;-6.10;99.90
20858;DHT22;10589;53.636;10.012;2022-12-18T05:08:58;-6.10;99.90
20858;DHT22;10589;53.636;10.012;2022-12-18T05:11:24;-6.10;99.90
20858;DHT22;10589;53.636;10.012;2022-12-18T05:13:50;-6.10;99.90
20858;DHT22;10589;53.636;10.012;2022-12-18T05:16:15;-6.10;99.90
20858;DHT22;10589;53.636;10.012;2022-12-18T05:18:41;-6.20;99.90
20858;DHT22;10589;53.636;10.012;2022-12-18T05:21:07;-6.20;99.90
20858;DHT22;10589;53.636;10.012;2022-12-18T05:23:36;-6.20;99.90
20858;DHT22;10589;53.636;10.012;2022-12-18T05:26:04;-6.20;99.90
20858;DHT22;10589;53.636;10.012;2022-12-18T05:28:32;-6.20;99.90
20858;DHT22;10589;53.636;10.012;2022-12-18T05:31:00;-6.20;99.90
20858;DHT22;10589;53.636;10.012;2022-12-18T05:33:28;-6.10;99.90
20858;DHT22;10589;53.636;10.012;2022-12-18T05:35:56;-6.20;99.90
20858;DHT22;10589;53.636;10.012;2022-12-18T05:38:23;-6.20;99.90
20858;DHT22;10589;53.636;10.012;2022-12-18T05:40:50;-6.30;99.90
20858;DHT22;10589;53.636;10.012;2022-12-18T05:43:16;-6.30;99.90
20858;DHT22;10589;53.636;10.012;2022-12-18T05:45:41;-6.40;99.90
20858;DHT22;10589;53.636;10.012;2022-12-18T05:48:07;-6.30;99.90
20858;DHT22;10589;53.636;10.012;2022-12-18T05:50:37;-6.40;99.90
20858;DHT22;10589;53.636;10.012;2022-12-18T05:53:05;-6.40;99.90
20858;DHT22;10589;53.636;10.012;2022-12-18T05:55:38;-6.30;99.90
20858;DHT22;10589;53.636;10.012;2022-12-18T05:58:04;-6.30;99.90
20858;DHT22;10589;53.636;10.012;2022-12-18T06:00:31;-6.40;99.90
20858;DHT22;10589;53.636;10.012;2022-12-18T06:02:58;-6.40;99.90
20858;DHT22;10589;53.636;10.012;2022-12-18T06:05:24;-6.40;99.90
20858;DHT22;10589;53.636;10.012;2022-12-18T06:07:49;-6.40;99.90
20858;DHT22;10589;53.636;10.012;2022-12-18T06:10:15;-6.40;99.90
20858;DHT22;10589;53.636;10.012;2022-12-18T06:12:41;-6.30;99.90
20858;DHT22;10589;53.636;10.012;2022-12-18T06:15:07;-6.40;99.90
20858;DHT22;10589;53.636;10.012;2022-12-18T06:17:33;-6.40;99.90
20858;DHT22;10589;53.636;10.012;2022-12-18T06:19:58;-6.40;99.90
20858;DHT22;10589;53.636;10.012;2022-12-18T06:22:24;-6.40;99.90
20858;DHT22;10589;53.636;10.012;2022-12-18T06:24:49;-6.40;99.90
20858;DHT22;10589;53.636;10.012;2022-12-18T06:27:15;-6.30;99.90
20858;DHT22;10589;53.636;10.012;2022-12-18T06:29:41;-6.40;99.90
20858;DHT22;10589;53.636;10.012;2022-12-18T06:32:07;-6.40;99.90
20858;DHT22;10589;53.636;10.012;2022-12-18T06:34:33;-6.40;99.90
20858;DHT22;10589;53.636;10.012;2022-12-18T06:36:59;-6.40;99.90
20858;DHT22;10589;53.636;10.012;2022-12-18T06:39:26;-6.40;99.90
20858;DHT22;10589;53.636;10.012;2022-12-18T06:41:52;-6.50;99.90
20858;DHT22;10589;53.636;10.012;2022-12-18T06:44:18;-6.50;99.90
20858;DHT22;10589;53.636;10.012;2022-12-18T06:46:43;-6.40;99.90
20858;DHT22;10589;53.636;10.012;2022-12-18T06:49:09;-6.40;99.90
20858;DHT22;10589;53.636;10.012;2022-12-18T06:51:34;-6.50;99.90
20858;DHT22;10589;53.636;10.012;2022-12-18T06:54:01;-6.40;99.90
20858;DHT22;10589;53.636;10.012;2022-12-18T06:56:26;-6.40;99.90
20858;DHT22;10589;53.636;10.012;2022-12-18T06:58:52;-6.40;99.90
20858;DHT22;10589;53.636;10.012;2022-12-18T07:01:18;-6.40;99.90
20858;DHT22;10589;53.636;10.012;2022-12-18T07:03:44;-6.40;99.90
20858;DHT22;10589;53.636;10.012;2022-12-18T07:06:14;-6.40;99.90
20858;DHT22;10589;53.636;10.012;2022-12-18T07:08:40;-6.50;99.90
20858;DHT22;10589;53.636;10.012;2022-12-18T07:11:06;-6.50;99.90
20858;DHT22;10589;53.636;10.012;2022-12-18T07:13:31;-6.40;99.90
20858;DHT22;10589;53.636;10.012;2022-12-18T07:16:08;-6.50;99.90
20858;DHT22;10589;53.636;10.012;2022-12-18T07:18:34;-6.40;99.90
20858;DHT22;10589;53.636;10.012;2022-12-18T07:21:06;-6.40;99.90
20858;DHT22;10589;53.636;10.012;2022-12-18T07:23:33;-6.40;99.90
20858;DHT22;10589;53.636;10.012;2022-12-18T07:26:05;-6.40;99.90
20858;DHT22;10589;53.636;10.012;2022-12-18T07:28:32;-6.40;99.90
20858;DHT22;10589;53.636;10.012;2022-12-18T07:30:58;-6.50;99.90
20858;DHT22;10589;53.636;10.012;2022-12-18T07:33:24;-6.40;99.90
20858;DHT22;10589;53.636;10.012;2022-12-18T07:35:50;-6.40;99.90
20858;DHT22;10589;53.636;10.012;2022-12-18T07:38:15;-6.40;99.90
20858;DHT22;10589;53.636;10.012;2022-12-18T07:40:41;-6.40;99.90
20858;DHT22;10589;53.636;10.012;2022-12-18T07:43:06;-6.40;99.90
20858;DHT22;10589;53.636;10.012;2022-12-18T07:45:32;-6.30;99.90
20858;DHT22;10589;53.636;10.012;2022-12-18T07:47:57;-6.20;99.90
20858;DHT22;10589;53.636;10.012;2022-12-18T07:50:23;-6.20;99.90
20858;DHT22;10589;53.636;10.012;2022-12-18T07:52:49;-6.20;99.90
20858;DHT22;10589;53.636;10.012;2022-12-18T07:55:15;-6.20;99.90
20858;DHT22;10589;53.636;10.012;2022-12-18T07:57:40;-6.20;99.90
20858;DHT22;10589;53.636;10.012;2022-12-18T08:00:06;-6.10;99.90
20858;DHT22;10589;53.636;10.012;2022-12-18T08:02:32;-6.10;99.90
20858;DHT22;10589;53.636;10.012;2022-12-18T08:04:58;-6.10;99.90
20858;DHT22;10589;53.636;10.012;2022-12-18T08:07:23;-6.10;99.90
20858;DHT22;10589;53.636;10.012;2022-12-18T08:09:49;-6.10;99.90
20858;DHT22;10589;53.636;10.012;2022-12-18T08:12:15;-6.10;99.90
20858;DHT22;10589;53.636;10.012;2022-12-18T08:14:40;-6.20;99.90
20858;DHT22;10589;53.636;10.012;2022-12-18T08:17:06;-6.10;99.90
20858;DHT22;10589;53.636;10.012;2022-12-18T08:19:31;-6.00;99.90
20858;DHT22;10589;53.636;10.012;2022-12-18T08:21:57;-6.00;99.90
20858;DHT22;10589;53.636;10.012;2022-12-18T08:24:23;-6.00;99.90
20858;DHT22;10589;53.636;10.012;2022-12-18T08:26:48;-5.90;99.90
20858;DHT22;10589;53.636;10.012;2022-12-18T08:29:14;-5.90;99.90
20858;DHT22;10589;53.636;10.012;2022-12-18T08:31:39;-5.90;99.90
20858;DHT22;10589;53.636;10.012;2022-12-18T08:34:05;-5.90;99.90
20858;DHT22;10589;53.636;10.012;2022-12-18T08:36:30;-5.90;99.90
20858;DHT22;10589;53.636;10.012;2022-12-18T08:38:56;-5.80;99.90
20858;DHT22;10589;53.636;10.012;2022-12-18T08:41:22;-5.80;99.90
20858;DHT22;10589;53.636;10.012;2022-12-18T08:43:48;-5.70;99.90
20858;DHT22;10589;53.636;10.012;2022-12-18T08:46:40;-5.70;99.90
20858;DHT22;10589;53.636;10.012;2022-12-18T08:49:07;-5.70;99.90
20858;DHT22;10589;53.636;10.012;2022-12-18T08:51:34;-5.60;99.90
20858;DHT22;10589;53.636;10.012;2022-12-18T08:54:00;-5.60;99.90
20858;DHT22;10589;53.636;10.012;2022-12-18T08:56:26;-5.60;99.90
20858;DHT22;10589;53.636;10.012;2022-12-18T08:58:55;-5.60;99.90
20858;DHT22;10589;53.636;10.012;2022-12-18T09:01:21;-5.50;99.90
20858;DHT22;10589;53.636;10.012;2022-12-18T09:03:47;-5.50;99.90
20858;DHT22;10589;53.636;10.012;2022-12-18T09:06:15;-5.40;99.90
20858;DHT22;10589;53.636;10.012;2022-12-18T09:08:42;-5.40;99.90
20858;DHT22;10589;53.636;10.012;2022-12-18T09:11:24;-5.30;99.90
20858;DHT22;10589;53.636;10.012;2022-12-18T09:13:51;-5.20;99.90
20858;DHT22;10589;53.636;10.012;2022-12-18T09:16:17;-5.20;99.90
20858;DHT22;10589;53.636;10.012;2022-12-18T09:18:43;-5.10;99.90
20858;DHT22;10589;53.636;10.012;2022-12-18T09:21:14;-5.10;99.90
20858;DHT22;10589;53.636;10.012;2022-12-18T09:23:40;-5.10;99.90
20858;DHT22;10589;53.636;10.012;2022-12-18T09:26:06;-5.10;99.90
20858;DHT22;10589;53.636;10.012;2022-12-18T09:28:32;-5.00;99.90
20858;DHT22;10589;53.636;10.012;2022-12-18T09:30:57;-5.00;99.90
20858;DHT22;10589;53.636;10.012;2022-12-18T09:33:23;-4.90;99.90
20858;DHT22;10589;53.636;10.012;2022-12-18T09:35:49;-4.80;99.90
20858;DHT22;10589;53.636;10.012;2022-12-18T09:38:17;-4.80;99.90
20858;DHT22;10589;53.636;10.012;2022-12-18T09:40:49;-4.70;99.90
20858;DHT22;10589;53.636;10.012;2022-12-18T09:43:28;-4.60;99.90
20858;DHT22;10589;53.636;10.012;2022-12-18T09:45:59;-4.60;99.90
20858;DHT22;10589;53.636;10.012;2022-12-18T09:48:34;-4.50;99.90
20858;DHT22;10589;53.636;10.012;2022-12-18T09:51:04;-4.40;99.90
20858;DHT22;10589;53.636;10.012;2022-12-18T09:53:34;-4.30;99.90
20858;DHT22;10589;53.636;10.012;2022-12-18T09:56:01;-4.30;99.90
20858;DHT22;10589;53.636;10.012;2022-12-18T09:58:39;-4.20;99.90
20858;DHT22;10589;53.636;10.012;2022-12-18T10:01:20;-4.20;99.90
20858;DHT22;10589;53.636;10.012;2022-12-18T10:03:47;-4.10;99.90
20858;DHT22;10589;53.636;10.012;2022-12-18T10:06:30;-4.10;99.90
20858;DHT22;10589;53.636;10.012;2022-12-18T10:14:50;-3.90;99.90
20858;DHT22;10589;53.636;10.012;2022-12-18T10:20:39;-3.70;99.90
20858;DHT22;10589;53.636;10.012;2022-12-18T10:23:39;-3.70;99.90
20858;DHT22;10589;53.636;10.012;2022-12-18T10:26:10;-3.60;99.90
20858;DHT22;10589;53.636;10.012;2022-12-18T10:28:40;-3.50;99.90
20858;DHT22;10589;53.636;10.012;2022-12-18T10:31:16;-3.40;99.90
20858;DHT22;10589;53.636;10.012;2022-12-18T10:33:42;-3.30;99.90
20858;DHT22;10589;53.636;10.012;2022-12-18T10:36:08;-3.30;99.90
20858;DHT22;10589;53.636;10.012;2022-12-18T10:38:34;-3.40;99.90
20858;DHT22;10589;53.636;10.012;2022-12-18T10:43:43;-3.30;99.90
20858;DHT22;10589;53.636;10.012;2022-12-18T10:51:31;-3.10;99.90
20858;DHT22;10589;53.636;10.012;2022-12-18T10:54:03;-3.10;99.90
20858;DHT22;10589;53.636;10.012;2022-12-18T10:56:31;-3.10;99.90
20858;DHT22;10589;53.636;10.012;2022-12-18T10:59:00;-3.00;99.90
20858;DHT22;10589;53.636;10.012;2022-12-18T11:01:27;-2.90;99.90
20858;DHT22;10589;53.636;10.012;2022-12-18T11:06:21;-2.80;99.90
20858;DHT22;10589;53.636;10.012;2022-12-18T11:09:06;-2.80;99.90
20858;DHT22;10589;53.636;10.012;2022-12-18T11:11:52;-2.80;99.90
20858;DHT22;10589;53.636;10.012;2022-12-18T11:14:24;-2.70;99.90
20858;DHT22;10589;53.636;10.012;2022-12-18T11:16:51;-2.60;99.90
20858;DHT22;10589;53.636;10.012;2022-12-18T11:19:36;-2.50;99.90
20858;DHT22;10589;53.636;10.012;2022-12-18T11:22:24;-2.50;99.90
20858;DHT22;10589;53.636;10.012;2022-12-18T11:27:38;-2.40;99.90
20858;DHT22;10589;53.636;10.012;2022-12-18T11:30:32;-2.30;99.90
20858;DHT22;10589;53.636;10.012;2022-12-18T11:36:03;-2.30;99.90
20858;DHT22;10589;53.636;10.012;2022-12-18T11:38:35;-2.30;99.90
20858;DHT22;10589;53.636;10.012;2022-12-18T11:44:06;-2.30;99.90
20858;DHT22;10589;53.636;10.012;2022-12-18T11:46:37;-2.40;99.90
20858;DHT22;10589;53.636;10.012;2022-12-18T11:49:28;-2.30;99.90
20858;DHT22;10589;53.636;10.012;2022-12-18T11:54:34;-2.20;99.90
20858;DHT22;10589;53.636;10.012;2022-12-18T11:57:37;-2.20;99.90
20858;DHT22;10589;53.636;10.012;2022-12-18T12:00:22;-2.20;99.90
20858;DHT22;10589;53.636;10.012;2022-12-18T12:06:01;-2.20;99.90
20858;DHT22;10589;53.636;10.012;2022-12-18T12:08:51;-2.20;99.90
20858;DHT22;10589;53.636;10.012;2022-12-18T12:11:41;-2.20;99.90
20858;DHT22;10589;53.636;10.012;2022-12-18T12:17:21;-2.30;99.90
20858;DHT22;10589;53.636;10.012;2022-12-18T12:25:31;-2.10;99.90
20858;DHT22;10589;53.636;10.012;2022-12-18T12:39:30;-2.00;99.90
20858;DHT22;10589;53.636;10.012;2022-12-18T12:41:57;-2.00;99.90
20858;DHT22;10589;53.636;10.012;2022-12-18T12:44:45;-2.00;99.90
20858;DHT22;10589;53.636;10.012;2022-12-18T12:47:27;-1.90;99.90
20858;DHT22;10589;53.636;10.012;2022-12-18T12:49:53;-1.90;99.90
20858;DHT22;10589;53.636;10.012;2022-12-18T12:55:28;-1.70;99.90
20858;DHT22;10589;53.636;10.012;2022-12-18T12:58:25;-1.60;99.90
20858;DHT22;10589;53.636;10.012;2022-12-18T13:04:06;-1.50;99.90
20858;DHT22;10589;53.636;10.012;2022-12-18T13:09:08;-1.30;99.90
20858;DHT22;10589;53.636;10.012;2022-12-18T13:11:40;-1.20;99.90
20858;DHT22;10589;53.636;10.012;2022-12-18T13:19:41;-1.20;99.90
20858;DHT22;10589;53.636;10.012;2022-12-18T13:22:29;-1.10;99.90
20858;DHT22;10589;53.636;10.012;2022-12-18T13:24:55;-1.20;99.90
20858;DHT22;10589;53.636;10.012;2022-12-18T13:40:58;-1.50;99.90
20858;DHT22;10589;53.636;10.012;2022-12-18T13:43:28;-1.50;99.90
20858;DHT22;10589;53.636;10.012;2022-12-18T13:46:21;-1.50;99.90
20858;DHT22;10589;53.636;10.012;2022-12-18T13:48:57;-1.60;99.90
20858;DHT22;10589;53.636;10.012;2022-12-18T13:51:25;-1.70;99.90
20858;DHT22;10589;53.636;10.012;2022-12-18T13:53:52;-1.70;99.90
20858;DHT22;10589;53.636;10.012;2022-12-18T13:56:24;-1.80;99.90
20858;DHT22;10589;53.636;10.012;2022-12-18T13:59:23;-1.80;99.90
20858;DHT22;10589;53.636;10.012;2022-12-18T14:02:00;-1.90;99.90
20858;DHT22;10589;53.636;10.012;2022-12-18T14:04:28;-2.00;99.90
20858;DHT22;10589;53.636;10.012;2022-12-18T14:07:32;-2.00;99.90
20858;DHT22;10589;53.636;10.012;2022-12-18T14:09:59;-2.00;99.90
20858;DHT22;10589;53.636;10.012;2022-12-18T14:12:33;-2.10;99.90
20858;DHT22;10589;53.636;10.012;2022-12-18T14:15:41;-2.10;99.90
20858;DHT22;10589;53.636;10.012;2022-12-18T14:20:54;-2.10;99.90
20858;DHT22;10589;53.636;10.012;2022-12-18T14:23:39;-2.20;99.90
20858;DHT22;10589;53.636;10.012;2022-12-18T14:26:31;-2.30;99.90
20858;DHT22;10589;53.636;10.012;2022-12-18T14:29:00;-2.30;99.90
20858;DHT22;10589;53.636;10.012;2022-12-18T14:31:29;-2.30;99.90
20858;DHT22;10589;53.636;10.012;2022-12-18T14:33:55;-2.40;99.90
20858;DHT22;10589;53.636;10.012;2022-12-18T14:36:26;-2.50;99.90
20858;DHT22;10589;53.636;10.012;2022-12-18T14:38:58;-2.50;99.90
20858;DHT22;10589;53.636;10.012;2022-12-18T14:41:25;-2.60;99.90
20858;DHT22;10589;53.636;10.012;2022-12-18T14:43:52;-2.60;99.90
20858;DHT22;10589;53.636;10.012;2022-12-18T14:46:44;-2.60;99.90
20858;DHT22;10589;53.636;10.012;2022-12-18T14:49:30;-2.70;99.90
20858;DHT22;10589;53.636;10.012;2022-12-18T14:52:12;-2.70;99.90
20858;DHT22;10589;53.636;10.012;2022-12-18T14:54:46;-2.70;99.90
20858;DHT22;10589;53.636;10.012;2022-12-18T14:57:24;-2.80;99.90
20858;DHT22;10589;53.636;10.012;2022-12-18T14:59:52;-2.80;99.90
20858;DHT22;10589;53.636;10.012;2022-12-18T15:02:23;-2.90;99.90
20858;DHT22;10589;53.636;10.012;2022-12-18T15:05:05;-2.90;99.90
20858;DHT22;10589;53.636;10.012;2022-12-18T15:07:49;-3.00;99.90
20858;DHT22;10589;53.636;10.012;2022-12-18T15:10:24;-3.00;99.90
20858;DHT22;10589;53.636;10.012;2022-12-18T15:12:50;-3.00;99.90
20858;DHT22;10589;53.636;10.012;2022-12-18T15:20:57;-3.10;99.90
20858;DHT22;10589;53.636;10.012;2022-12-18T15:26:03;-3.10;99.90
20858;DHT22;10589;53.636;10.012;2022-12-18T15:28:37;-3.20;99.90
20858;DHT22;10589;53.636;10.012;2022-12-18T15:36:23;-3.30;99.90
20858;DHT22;10589;53.636;10.012;2022-12-18T15:38:50;-3.30;99.90
20858;DHT22;10589;53.636;10.012;2022-12-18T15:41:19;-3.20;99.90
20858;DHT22;10589;53.636;10.012;2022-12-18T15:43:46;-3.20;99.90
20858;DHT22;10589;53.636;10.012;2022-12-18T15:46:24;-3.20;99.90
20858;DHT22;10589;53.636;10.012;2022-12-18T15:48:54;-3.20;99.90
20858;DHT22;10589;53.636;10.012;2022-12-18T15:51:21;-3.10;99.90
20858;DHT22;10589;53.636;10.012;2022-12-18T15:53:50;-3.10;99.90
20858;DHT22;10589;53.636;10.012;2022-12-18T15:56:16;-3.10;99.90
20858;DHT22;10589;53.636;10.012;2022-12-18T15:59:01;-3.20;99.90
20858;DHT22;10589;53.636;10.012;2022-12-18T16:01:29;-3.20;99.90
20858;DHT22;10589;53.636;10.012;2022-12-18T16:03:55;-3.20;99.90
20858;DHT22;10589;53.636;10.012;2022-12-18T16:06:22;-3.20;99.90
20858;DHT22;10589;53.636;10.012;2022-12-18T16:08:48;-3.20;99.90
20858;DHT22;10589;53.636;10.012;2022-12-18T16:11:24;-3.20;99.90
20858;DHT22;10589;53.636;10.012;2022-12-18T16:14:16;-3.20;99.90
20858;DHT22;10589;53.636;10.012;2022-12-18T16:16:42;-3.10;99.90
20858;DHT22;10589;53.636;10.012;2022-12-18T16:19:07;-3.10;99.90
20858;DHT22;10589;53.636;10.012;2022-12-18T16:21:33;-3.10;99.90
20858;DHT22;10589;53.636;10.012;2022-12-18T16:23:58;-3.10;99.90
20858;DHT22;10589;53.636;10.012;2022-12-18T16:26:24;-3.20;99.90
20858;DHT22;10589;53.636;10.012;2022-12-18T16:28:49;-3.20;99.90
20858;DHT22;10589;53.636;10.012;2022-12-18T16:31:15;-3.20;99.90
20858;DHT22;10589;53.636;10.012;2022-12-18T16:33:41;-3.30;99.90
20858;DHT22;10589;53.636;10.012;2022-12-18T16:36:07;-3.30;99.90
20858;DHT22;10589;53.636;10.012;2022-12-18T16:38:33;-3.30;99.90
20858;DHT22;10589;53.636;10.012;2022-12-18T16:40:58;-3.30;99.90
20858;DHT22;10589;53.636;10.012;2022-12-18T16:43:42;-3.30;99.90
20858;DHT22;10589;53.636;10.012;2022-12-18T16:46:08;-3.40;99.90
20858;DHT22;10589;53.636;10.012;2022-12-18T16:48:34;-3.40;99.90
20858;DHT22;10589;53.636;10.012;2022-12-18T16:51:01;-3.50;99.90
20858;DHT22;10589;53.636;10.012;2022-12-18T16:53:32;-3.50;99.90
20858;DHT22;10589;53.636;10.012;2022-12-18T16:55:57;-3.50;99.90
20858;DHT22;10589;53.636;10.012;2022-12-18T16:58:23;-3.50;99.90
20858;DHT22;10589;53.636;10.012;2022-12-18T17:00:49;-3.50;99.90
20858;DHT22;10589;53.636;10.012;2022-12-18T17:03:14;-3.60;99.90
20858;DHT22;10589;53.636;10.012;2022-12-18T17:05:40;-3.50;99.90
20858;DHT22;10589;53.636;10.012;2022-12-18T17:08:05;-3.60;99.90
20858;DHT22;10589;53.636;10.012;2022-12-18T17:10:33;-3.60;99.90
20858;DHT22;10589;53.636;10.012;2022-12-18T17:12:59;-3.60;99.90
20858;DHT22;10589;53.636;10.012;2022-12-18T17:15:25;-3.60;99.90
20858;DHT22;10589;53.636;10.012;2022-12-18T17:17:51;-3.70;99.90
20858;DHT22;10589;53.636;10.012;2022-12-18T17:20:16;-3.60;99.90
20858;DHT22;10589;53.636;10.012;2022-12-18T17:22:42;-3.60;99.90
20858;DHT22;10589;53.636;10.012;2022-12-18T17:25:08;-3.70;99.90
20858;DHT22;10589;53.636;10.012;2022-12-18T17:27:33;-3.60;99.90
20858;DHT22;10589;53.636;10.012;2022-12-18T17:29:59;-3.60;99.90
20858;DHT22;10589;53.636;10.012;2022-12-18T17:32:24;-3.60;99.90
20858;DHT22;10589;53.636;10.012;2022-12-18T17:34:50;-3.50;99.90
20858;DHT22;10589;53.636;10.012;2022-12-18T17:37:16;-3.60;99.90
20858;DHT22;10589;53.636;10.012;2022-12-18T17:39:41;-3.60;99.90
20858;DHT22;10589;53.636;10.012;2022-12-18T17:42:07;-3.50;99.90
20858;DHT22;10589;53.636;10.012;2022-12-18T17:44:35;-3.50;99.90
20858;DHT22;10589;53.636;10.012;2022-12-18T17:47:01;-3.50;99.90
20858;DHT22;10589;53.636;10.012;2022-12-18T17:49:27;-3.30;99.90
20858;DHT22;10589;53.636;10.012;2022-12-18T17:51:52;-3.40;99.90
20858;DHT22;10589;53.636;10.012;2022-12-18T17:54:18;-3.40;99.90
20858;DHT22;10589;53.636;10.012;2022-12-18T17:56:45;-3.40;99.90
20858;DHT22;10589;53.636;10.012;2022-12-18T17:59:12;-3.30;99.90
20858;DHT22;10589;53.636;10.012;2022-12-18T18:01:38;-3.30;99.90
20858;DHT22;10589;53.636;10.012;2022-12-18T18:04:04;-3.30;99.90
20858;DHT22;10589;53.636;10.012;2022-12-18T18:06:30;-3.30;99.90
20858;DHT22;10589;53.636;10.012;2022-12-18T18:08:55;-3.20;99.90
20858;DHT22;10589;53.636;10.012;2022-12-18T18:11:22;-3.10;99.90
20858;DHT22;10589;53.636;10.012;2022-12-18T18:14:15;-3.20;99.90
20858;DHT22;10589;53.636;10.012;2022-12-18T18:16:44;-3.10;99.90
20858;DHT22;10589;53.636;10.012;2022-12-18T18:19:13;-3.20;99.90
20858;DHT22;10589;53.636;10.012;2022-12-18T18:21:41;-3.20;99.90
20858;DHT22;10589;53.636;10.012;2022-12-18T18:24:09;-3.20;99.90
20858;DHT22;10589;53.636;10.012;2022-12-18T18:26:35;-3.20;99.90
20858;DHT22;10589;53.636;10.012;2022-12-18T18:29:02;-3.10;99.90
20858;DHT22;10589;53.636;10.012;2022-12-18T18:31:30;-3.10;99.90
20858;DHT22;10589;53.636;10.012;2022-12-18T18:33:56;-3.00;99.90
20858;DHT22;10589;53.636;10.012;2022-12-18T18:36:22;-2.90;99.90
20858;DHT22;10589;53.636;10.012;2022-12-18T18:38:48;-3.00;99.90
20858;DHT22;10589;53.636;10.012;2022-12-18T18:41:15;-2.90;99.90
20858;DHT22;10589;53.636;10.012;2022-12-18T18:43:41;-3.00;99.90
20858;DHT22;10589;53.636;10.012;2022-12-18T18:46:08;-3.00;99.90
20858;DHT22;10589;53.636;10.012;2022-12-18T18:48:36;-2.90;99.90
20858;DHT22;10589;53.636;10.012;2022-12-18T18:51:04;-2.90;99.90
20858;DHT22;10589;53.636;10.012;2022-12-18T18:53:32;-2.80;99.90
20858;DHT22;10589;53.636;10.012;2022-12-18T18:55:59;-2.80;99.90
20858;DHT22;10589;53.636;10.012;2022-12-18T18:58:25;-2.80;99.90
20858;DHT22;10589;53.636;10.012;2022-12-18T19:00:56;-2.60;99.90
20858;DHT22;10589;53.636;10.012;2022-12-18T19:03:22;-2.60;99.90
20858;DHT22;10589;53.636;10.012;2022-12-18T19:05:53;-2.60;99.90
20858;DHT22;10589;53.636;10.012;2022-12-18T19:08:21;-2.70;99.90
20858;DHT22;10589;53.636;10.012;2022-12-18T19:10:50;-2.70;99.90
20858;DHT22;10589;53.636;10.012;2022-12-18T19:13:15;-2.70;99.90
20858;DHT22;10589;53.636;10.012;2022-12-18T19:15:50;-2.70;99.90
20858;DHT22;10589;53.636;10.012;2022-12-18T19:18:17;-2.70;99.90
20858;DHT22;10589;53.636;10.012;2022-12-18T19:20:43;-2.70;99.90
20858;DHT22;10589;53.636;10.012;2022-12-18T19:23:09;-2.70;99.90
20858;DHT22;10589;53.636;10.012;2022-12-18T19:25:38;-2.70;99.90
20858;DHT22;10589;53.636;10.012;2022-12-18T19:28:04;-2.70;99.90
20858;DHT22;10589;53.636;10.012;2022-12-18T19:30:31;-2.70;99.90
20858;DHT22;10589;53.636;10.012;2022-12-18T19:32:56;-2.70;99.90
20858;DHT22;10589;53.636;10.012;2022-12-18T19:35:22;-2.70;99.90
20858;DHT22;10589;53.636;10.012;2022-12-18T19:37:48;-2.70;99.90
20858;DHT22;10589;53.636;10.012;2022-12-18T19:40:13;-2.70;99.90
20858;DHT22;10589;53.636;10.012;2022-12-18T19:42:39;-2.60;99.90
20858;DHT22;10589;53.636;10.012;2022-12-18T19:45:05;-2.70;99.90
20858;DHT22;10589;53.636;10.012;2022-12-18T19:47:31;-2.60;99.90
20858;DHT22;10589;53.636;10.012;2022-12-18T19:49:56;-2.60;99.90
20858;DHT22;10589;53.636;10.012;2022-12-18T19:52:22;-2.70;99.90
20858;DHT22;10589;53.636;10.012;2022-12-18T19:54:48;-2.60;99.90
20858;DHT22;10589;53.636;10.012;2022-12-18T19:57:13;-2.60;99.90
20858;DHT22;10589;53.636;10.012;2022-12-18T19:59:39;-2.60;99.90
20858;DHT22;10589;53.636;10.012;2022-12-18T20:02:05;-2.60;99.90
20858;DHT22;10589;53.636;10.012;2022-12-18T20:04:30;-2.60;99.90
20858;DHT22;10589;53.636;10.012;2022-12-18T20:06:56;-2.60;99.90
20858;DHT22;10589;53.636;10.012;2022-12-18T20:09:22;-2.60;99.90
20858;DHT22;10589;53.636;10.012;2022-12-18T20:11:47;-2.60;99.90
20858;DHT22;10589;53.636;10.012;2022-12-18T20:14:14;-2.50;99.90
20858;DHT22;10589;53.636;10.012;2022-12-18T20:16:40;-2.60;99.90
20858;DHT22;10589;53.636;10.012;2022-12-18T20:19:06;-2.50;99.90
20858;DHT22;10589;53.636;10.012;2022-12-18T20:21:32;-2.50;99.90
20858;DHT22;10589;53.636;10.012;2022-12-18T20:23:58;-2.40;99.90
20858;DHT22;10589;53.636;10.012;2022-12-18T20:26:25;-2.40;99.90
20858;DHT22;10589;53.636;10.012;2022-12-18T20:28:52;-2.40;99.90
20858;DHT22;10589;53.636;10.012;2022-12-18T20:31:18;-2.50;99.90
20858;DHT22;10589;53.636;10.012;2022-12-18T20:33:43;-2.40;99.90
20858;DHT22;10589;53.636;10.012;2022-12-18T20:36:14;-2.40;99.90
20858;DHT22;10589;53.636;10.012;2022-12-18T20:38:40;-2.40;99.90
20858;DHT22;10589;53.636;10.012;2022-12-18T20:41:08;-2.40;99.90
20858;DHT22;10589;53.636;10.012;2022-12-18T20:43:35;-2.40;99.90
20858;DHT22;10589;53.636;10.012;2022-12-18T20:46:06;-2.40;99.90
20858;DHT22;10589;53.636;10.012;2022-12-18T20:48:32;-2.40;99.90
20858;DHT22;10589;53.636;10.012;2022-12-18T20:51:04;-2.40;99.90
20858;DHT22;10589;53.636;10.012;2022-12-18T20:53:31;-2.40;99.90
20858;DHT22;10589;53.636;10.012;2022-12-18T20:55:57;-2.40;99.90
20858;DHT22;10589;53.636;10.012;2022-12-18T20:58:22;-2.40;99.90
20858;DHT22;10589;53.636;10.012;2022-12-18T21:00:48;-2.40;99.90
20858;DHT22;10589;53.636;10.012;2022-12-18T21:03:14;-2.30;99.90
20858;DHT22;10589;53.636;10.012;2022-12-18T21:05:40;-2.30;99.90
20858;DHT22;10589;53.636;10.012;2022-12-18T21:08:05;-2.30;99.90
20858;DHT22;10589;53.636;10.012;2022-12-18T21:10:31;-2.20;99.90
20858;DHT22;10589;53.636;10.012;2022-12-18T21:12:57;-2.20;99.90
20858;DHT22;10589;53.636;10.012;2022-12-18T21:15:22;-2.20;99.90
20858;DHT22;10589;53.636;10.012;2022-12-18T21:17:48;-2.20;99.90
20858;DHT22;10589;53.636;10.012;2022-12-18T21:20:14;-2.20;99.90
20858;DHT22;10589;53.636;10.012;2022-12-18T21:22:40;-2.20;99.90
20858;DHT22;10589;53.636;10.012;2022-12-18T21:25:06;-2.20;99.90
20858;DHT22;10589;53.636;10.012;2022-12-18T21:27:32;-2.20;99.90
20858;DHT22;10589;53.636;10.012;2022-12-18T21:29:58;-2.20;99.90
20858;DHT22;10589;53.636;10.012;2022-12-18T21:32:23;-2.20;99.90
20858;DHT22;10589;53.636;10.012;2022-12-18T21:34:50;-2.10;99.90
20858;DHT22;10589;53.636;10.012;2022-12-18T21:37:16;-2.10;99.90
20858;DHT22;10589;53.636;10.012;2022-12-18T21:39:42;-2.10;99.90
20858;DHT22;10589;53.636;10.012;2022-12-18T21:42:10;-2.00;99.90
20858;DHT22;10589;53.636;10.012;2022-12-18T21:44:54;-2.10;99.90
20858;DHT22;10589;53.636;10.012;2022-12-18T21:47:20;-2.10;99.90
20858;DHT22;10589;53.636;10.012;2022-12-18T21:49:46;-2.10;99.90
20858;DHT22;10589;53.636;10.012;2022-12-18T21:52:11;-2.10;99.90